Data for 05/15/2008

Time Sea-Level Adjusted Pressure Absolute Pressure Temperature Relative Humidity Dew Point   
(mb) (inHg) (mb) (inHg) (C) (F) (%) (C) (F)
00:05 1026 30.3 856 25.28 8.5 47.3 89 6.8 44.2
00:10 1026 30.3 856 25.28 8.1 46.6 91 6.7 44.1
00:15 1026 30.3 856 25.28 8 46.4 92 6.7 44
00:20 1027 30.33 856 25.28 7.9 46.2 92 6.7 44
00:25 1027 30.33 856 25.28 7.8 46.1 92 6.7 44
00:30 1027 30.33 856 25.28 7.7 45.9 93 6.6 43.9
00:35 1027 30.33 856 25.28 7.7 45.8 93 6.6 43.9
00:40 1027 30.33 856 25.28 7.7 45.8 93 6.6 43.8
00:45 1027 30.33 856 25.28 7.7 45.9 93 6.6 43.9
00:50 1027 30.33 856 25.28 7.6 45.7 92 6.5 43.7
00:55 1027 30.33 856 25.28 7.6 45.7 93 6.5 43.8
01:00 1027 30.33 856 25.28 7.6 45.7 93 6.5 43.7
01:05 1027 30.33 856 25.28 7.5 45.4 93 6.4 43.5
01:10 1027 30.33 856 25.28 7.4 45.3 93 6.4 43.5
01:15 1027 30.33 856 25.28 7.4 45.4 93 6.4 43.6
01:20 1027 30.33 856 25.28 7.3 45.2 93 6.3 43.4
01:25 1027 30.33 856 25.28 7.5 45.4 93 6.3 43.4
01:30 1027 30.33 856 25.28 7.3 45.2 92 6.1 43
01:35 1027 30.33 856 25.28 7.4 45.2 92 6.1 43
01:40 1027 30.33 856 25.28 7.4 45.2 92 6.1 43
01:45 1027 30.33 856 25.28 7.4 45.2 92 6.1 42.9
01:50 1027 30.33 856 25.28 7.3 45.1 92 6.1 43
01:55 1027 30.33 856 25.28 7.2 45 92 6.1 42.9
02:00 1027 30.33 856 25.28 7.2 44.9 92 6 42.7
02:05 1027 30.33 856 25.28 7.2 44.9 92 5.9 42.6
02:10 1027 30.33 856 25.28 7.2 45 91 5.8 42.4
02:15 1027 30.33 856 25.28 7.2 44.9 91 5.7 42.3
02:20 1027 30.33 856 25.28 7.2 45 89 5.6 42.1
02:25 1027 30.33 856 25.28 7.4 45.2 88 5.6 42
02:30 1027 30.33 856 25.28 7.4 45.2 88 5.5 42
02:35 1027 30.33 856 25.28 7.3 45.2 88 5.5 41.8
02:40 1027 30.33 856 25.28 7.3 45.2 88 5.4 41.7
02:45 1027 30.33 856 25.28 7.4 45.2 87 5.4 41.7
02:50 1027 30.33 856 25.28 7.4 45.3 87 5.4 41.8
02:55 1027 30.33 856 25.28 7.5 45.4 86 5.3 41.5
03:00 1027 30.33 856 25.28 7.7 45.8 85 5.3 41.6
03:05 1027 30.33 857 25.31 7.6 45.8 86 5.4 41.7
03:10 1027 30.33 857 25.31 7.5 45.5 86 5.3 41.5
03:15 1027 30.33 857 25.31 7.5 45.4 86 5.3 41.5
03:20 1027 30.33 857 25.31 7.5 45.4 86 5.3 41.6
03:25 1027 30.33 857 25.31 7.3 45.1 87 5.3 41.5
03:30 1027 30.33 857 25.31 6.6 43.9 89 5 41
03:35 1027 30.33 857 25.31 6.4 43.4 91 4.9 40.9
03:40 1027 30.33 857 25.31 6.5 43.6 90 5 41
03:45 1027 30.33 857 25.31 6.4 43.5 90 4.9 40.9
03:50 1027 30.33 857 25.31 6.4 43.5 91 5 40.9
03:55 1027 30.33 857 25.31 6.3 43.4 91 4.9 40.9
04:00 1027 30.33 857 25.31 6.2 43.2 91 4.8 40.7
04:05 1027 30.33 857 25.31 5.9 42.6 92 4.6 40.3
04:10 1027 30.33 857 25.31 5.6 42 93 4.5 40.1
04:15 1027 30.33 857 25.31 5.7 42.2 93 4.6 40.2
04:20 1027 30.33 857 25.31 5.6 42.1 93 4.6 40.2
04:25 1027 30.33 857 25.31 5.3 41.6 93 4.3 39.7
04:30 1027 30.33 857 25.31 5 41.1 94 4.1 39.4
04:35 1027 30.33 857 25.31 4.9 40.9 95 4.2 39.5
04:40 1028 30.36 857 25.31 5 41 95 4.2 39.6
04:45 1028 30.36 857 25.31 5.1 41.1 94 4.2 39.6
04:50 1028 30.36 857 25.31 5 40.9 95 4.2 39.5
04:55 1028 30.36 857 25.31 4.9 40.8 95 4.1 39.4
05:00 1028 30.36 857 25.31 4.8 40.6 95 4 39.3
05:05 1028 30.36 857 25.31 4.7 40.5 95 4 39.2
05:10 1028 30.36 857 25.31 4.8 40.6 95 4.1 39.3
05:15 1028 30.36 857 25.31 4.9 40.7 95 4.1 39.4
05:20 1028 30.36 857 25.31 4.8 40.7 95 4.1 39.4
05:25 1028 30.36 857 25.31 4.8 40.7 95 4.1 39.5
05:30 1028 30.36 857 25.31 5 41 95 4.2 39.6
05:35 1028 30.36 857 25.31 5.2 41.3 94 4.3 39.8
05:40 1028 30.36 857 25.31 5.2 41.3 94 4.3 39.7
05:45 1028 30.36 857 25.31 5.1 41.2 94 4.2 39.6
05:50 1028 30.36 857 25.31 5.1 41.1 94 4.2 39.6
05:55 1028 30.36 857 25.31 5.1 41.2 94 4.2 39.6
06:00 1028 30.36 857 25.31 5 41 94 4.1 39.5
06:05 1028 30.36 857 25.31 4.8 40.6 95 4 39.2
06:10 1028 30.36 857 25.31 4.6 40.3 96 4 39.1
06:15 1028 30.36 857 25.31 4.6 40.3 96 4 39.2
06:20 1028 30.36 857 25.31 4.6 40.3 96 4 39.2
06:25 1028 30.36 858 25.34 4.7 40.4 96 4.1 39.3
06:30 1028 30.36 858 25.34 4.9 40.8 96 4.3 39.7
06:35 1028 30.36 858 25.34 5.2 41.4 94 4.4 39.9
06:40 1029 30.39 858 25.34 5.3 41.6 94 4.4 39.9
06:45 1029 30.39 858 25.34 5.4 41.7 93 4.4 39.8
06:50 1029 30.39 858 25.34 5.4 41.7 93 4.3 39.7
06:55 1029 30.39 858 25.34 5.4 41.8 92 4.3 39.7
07:00 1029 30.39 858 25.34 5.3 41.5 92 4.1 39.4
07:05 1029 30.39 858 25.34 5.2 41.4 92 4.1 39.4
07:10 1029 30.39 858 25.34 5.5 42 91 4.2 39.6
07:15 1029 30.39 858 25.34 5.8 42.4 91 4.5 40
07:20 1029 30.39 858 25.34 6 42.8 91 4.6 40.2
07:25 1029 30.39 858 25.34 6.1 43 90 4.6 40.2
07:30 1029 30.39 858 25.34 6.1 43 90 4.6 40.3
07:35 1029 30.39 858 25.34 6.3 43.3 90 4.8 40.6
07:40 1029 30.39 858 25.34 6.5 43.7 90 5 41
07:45 1029 30.39 858 25.34 6.7 44 90 5.2 41.4
07:50 1029 30.39 858 25.34 7 44.5 90 5.5 41.9
07:55 1029 30.39 858 25.34 7.6 45.7 89 5.9 42.7
08:00 1029 30.39 858 25.34 8.3 47 86 6 42.9
08:05 1029 30.39 858 25.34 8.8 47.8 83 6.1 42.9
08:10 1029 30.39 858 25.34 9 48.2 81 6 42.7
08:15 1029 30.39 858 25.34 9.1 48.3 81 6 42.7
08:20 1029 30.39 858 25.34 9.3 48.8 79 5.9 42.5
08:25 1029 30.39 858 25.34 9.5 49 78 5.7 42.3
08:30 1029 30.39 858 25.34 9.4 48.9 78 5.8 42.5
08:35 1029 30.39 858 25.34 9.6 49.2 78 5.9 42.6
08:40 1029 30.39 858 25.34 9.8 49.6 77 6 42.8
08:45 1029 30.39 858 25.34 9.9 49.9 77 6.1 43
08:50 1029 30.39 858 25.34 10.3 50.5 76 6.3 43.4
08:55 1029 30.39 859 25.37 10.9 51.7 73 6.4 43.5
09:00 1029 30.39 859 25.37 11.5 52.7 71 6.4 43.4
09:05 1029 30.39 859 25.37 11.3 52.4 69 5.9 42.7
09:10 1030 30.42 859 25.37 10.2 50.3 75 6 42.7
09:15 1030 30.42 859 25.37 10 50 74 5.6 42
09:20 1030 30.42 859 25.37 10.6 51 72 5.8 42.5
09:25 1030 30.42 859 25.37 11.5 52.6 69 6 42.9
09:30 1030 30.42 859 25.37 12 53.6 67 6.2 43.1
09:35 1030 30.42 859 25.37 12.2 53.9 67 6.2 43.1
09:40 1030 30.42 859 25.37 12.2 54 64 5.7 42.3
09:45 1030 30.42 859 25.37 12.6 54.7 61 5.4 41.8
09:50 1030 30.42 859 25.37 12.4 54.3 62 5.3 41.5
09:55 1030 30.42 859 25.37 12.3 54.2 60 4.9 40.8
10:00 1030 30.42 859 25.37 12 53.6 62 5 40.9
10:05 1030 30.42 859 25.37 11.7 53.1 63 4.9 40.8
10:10 1030 30.42 859 25.37 11.9 53.4 62 4.9 40.7
10:15 1030 30.42 859 25.37 12.4 54.2 61 5.1 41.2
10:20 1030 30.42 859 25.37 12.6 54.6 60 5.1 41.2
10:25 1030 30.42 859 25.37 12.9 55.2 59 5.1 41.2
10:30 1030 30.42 859 25.37 13 55.4 58 4.9 40.8
10:35 1030 30.42 859 25.37 13.4 56.2 57 5.1 41.2
10:40 1030 30.42 859 25.37 12.8 55.1 58 4.9 40.8
10:45 1030 30.42 859 25.37 13.2 55.8 57 4.9 40.7
10:50 1030 30.42 859 25.37 13.6 56.5 56 5.1 41.1
10:55 1030 30.42 859 25.37 13.6 56.5 56 5 40.9
11:00 1030 30.42 859 25.37 14.8 58.6 52 5 41
11:05 1030 30.42 859 25.37 15.8 60.4 49 5.1 41.1
11:10 1030 30.42 859 25.37 15.4 59.7 50 5.1 41.3
11:15 1030 30.42 859 25.37 15.4 59.7 50 5.2 41.4
11:20 1030 30.42 859 25.37 13.5 56.3 57 5.2 41.4
11:25 1030 30.42 859 25.37 13.6 56.4 56 4.9 40.8
11:30 1029 30.39 859 25.37 14.6 58.2 51 4.8 40.6
11:35 1029 30.39 859 25.37 14 57.2 54 4.9 40.9
11:40 1029 30.39 859 25.37 13.5 56.3 55 4.8 40.6
11:45 1030 30.42 859 25.37 13.8 56.8 53 4.6 40.2
11:50 1030 30.42 859 25.37 14.5 58 51 4.6 40.2
11:55 1029 30.39 859 25.37 15.5 59.8 48 4.7 40.4
12:00 1029 30.39 859 25.37 14.8 58.6 54 5.6 42.1
12:05 1029 30.39 858 25.34 13.7 56.6 54 4.7 40.5
12:10 1029 30.39 858 25.34 14.1 57.4 54 5 41
12:15 1029 30.39 858 25.34 14.6 58.4 50 4.5 40.1
12:20 1029 30.39 858 25.34 14.7 58.4 53 5.2 41.4
12:25 1029 30.39 858 25.34 14.1 57.3 51 4.1 39.5
12:30 1029 30.39 858 25.34 14.7 58.4 47 3.7 38.6
12:35 1029 30.39 858 25.34 15.5 60 47 4.4 39.9
12:40 1029 30.39 858 25.34 15.7 60.3 47 4.4 39.9
12:45 1029 30.39 858 25.34 15.7 60.2 46 4.3 39.7
12:50 1029 30.39 858 25.34 15.7 60.2 48 4.6 40.3
12:55 1029 30.39 858 25.34 15.3 59.5 46 3.9 39
13:00 1029 30.39 858 25.34 15.9 60.7 43 3.5 38.2
13:05 1029 30.39 858 25.34 15.7 60.3 45 3.8 38.9
13:10 1029 30.39 858 25.34 15.9 60.5 44 3.7 38.7
13:15 1029 30.39 858 25.34 16.8 62.2 41 3.5 38.2
13:20 1029 30.39 858 25.34 16.3 61.4 43 3.8 38.9
13:25 1029 30.39 858 25.34 14.6 58.3 48 3.7 38.7
13:30 1029 30.39 858 25.34 15 58.9 47 3.7 38.7
13:35 1029 30.39 858 25.34 15.6 60 45 3.9 38.9
13:40 1029 30.39 858 25.34 15.9 60.6 45 3.9 39
13:45 1029 30.39 858 25.34 16.2 61.1 43 3.6 38.5
13:50 1029 30.39 858 25.34 15.8 60.5 47 4.5 40.2
13:55 1029 30.39 858 25.34 15.6 60.1 45 3.9 39.1
14:00 1029 30.39 858 25.34 15.6 60 46 4.2 39.6
14:05 1029 30.39 858 25.34 15.3 59.5 46 3.9 39
14:10 1029 30.39 858 25.34 15.2 59.3 47 4 39.2
14:15 1029 30.39 858 25.34 15.4 59.6 47 4 39.3
14:20 1029 30.39 858 25.34 15.3 59.5 47 4 39.2
14:25 1029 30.39 858 25.34 15.2 59.4 48 4.5 40.1
14:30 1029 30.39 858 25.34 14.7 58.4 50 4.4 39.9
14:35 1029 30.39 858 25.34 14.8 58.6 48 4.1 39.4
14:40 1029 30.39 858 25.34 15.2 59.4 48 4.2 39.6
14:45 1029 30.39 858 25.34 15.5 59.9 47 4.3 39.7
14:50 1029 30.39 858 25.34 15.1 59.1 50 4.7 40.5
14:55 1029 30.39 858 25.34 15.3 59.5 48 4.4 39.9
15:00 1029 30.39 858 25.34 15.2 59.4 48 4.3 39.8
15:05 1029 30.39 858 25.34 14.7 58.4 49 4.2 39.6
15:10 1028 30.36 858 25.34 14.8 58.7 49 4.2 39.6
15:15 1028 30.36 858 25.34 15.8 60.5 45 4.1 39.4
15:20 1028 30.36 858 25.34 15.5 59.9 48 4.6 40.2
15:25 1028 30.36 858 25.34 15.2 59.4 48 4.3 39.7
15:30 1028 30.36 858 25.34 15.6 60 47 4.5 40.1
15:35 1028 30.36 858 25.34 15.4 59.7 48 4.6 40.2
15:40 1028 30.36 858 25.34 15.1 59.1 49 4.5 40.2
15:45 1028 30.36 858 25.34 15.2 59.4 48 4.3 39.8
15:50 1028 30.36 858 25.34 15.7 60.2 47 4.4 40
15:55 1028 30.36 858 25.34 16 60.8 46 4.6 40.2
16:00 1028 30.36 857 25.31 16.7 62.1 41 3.6 38.4
16:05 1028 30.36 857 25.31 17.1 62.8 41 4 39.3
16:10 1028 30.36 857 25.31 17 62.6 42 4.3 39.7
16:15 1028 30.36 857 25.31 17 62.5 42 4 39.2
16:20 1028 30.36 857 25.31 18.1 64.6 39 4 39.1
16:25 1028 30.36 857 25.31 18.3 64.9 39 4.2 39.5
16:30 1028 30.36 857 25.31 18.7 65.6 38 4.3 39.8
16:35 1028 30.36 857 25.31 18 64.3 40 4.2 39.6
16:40 1028 30.36 857 25.31 18.4 65.1 40 4.6 40.3
16:45 1028 30.36 857 25.31 18.7 65.6 38 4.1 39.4
16:50 1028 30.36 857 25.31 19 66.2 37 4.2 39.5
16:55 1028 30.36 857 25.31 18.7 65.6 39 4.6 40.3
17:00 1028 30.36 857 25.31 18.2 64.7 40 4.4 39.9
17:05 1028 30.36 857 25.31 17.4 63.3 42 4.4 40
17:10 1028 30.36 857 25.31 17.6 63.6 41 4.3 39.7
17:15 1028 30.36 857 25.31 17.7 63.9 42 4.7 40.4
17:20 1028 30.36 857 25.31 17.5 63.5 42 4.6 40.3
17:25 1028 30.36 857 25.31 17.5 63.5 42 4.6 40.2
17:30 1028 30.36 857 25.31 17.6 63.8 42 4.6 40.3
17:35 1028 30.36 857 25.31 17.9 64.2 41 4.5 40.1
17:40 1028 30.36 857 25.31 18.2 64.8 40 4.5 40.1
17:45 1028 30.36 857 25.31 18.6 65.5 38 4.3 39.7
17:50 1027 30.33 857 25.31 19 66.2 38 4.4 39.9
17:55 1027 30.33 857 25.31 18.9 66 38 4.4 39.9
18:00 1027 30.33 857 25.31 19 66.1 38 4.5 40.1
18:05 1027 30.33 857 25.31 19 66.2 39 4.9 40.7
18:10 1027 30.33 857 25.31 18.6 65.5 40 5 41
18:15 1027 30.33 856 25.28 18.6 65.4 40 4.7 40.5
18:20 1027 30.33 856 25.28 18.9 65.9 39 4.8 40.6
18:25 1027 30.33 856 25.28 18.9 66 40 5 41
18:30 1027 30.33 856 25.28 18.7 65.7 40 4.9 40.8
18:35 1027 30.33 856 25.28 18 64.3 43 5.4 41.7
18:40 1027 30.33 856 25.28 17 62.6 45 5.1 41.2
18:45 1027 30.33 856 25.28 16.9 62.3 45 5.1 41.1
18:50 1027 30.33 856 25.28 16.8 62.2 45 4.7 40.5
18:55 1027 30.33 856 25.28 16.9 62.3 45 4.8 40.7
19:00 1027 30.33 856 25.28 17 62.6 44 4.6 40.3
19:05 1027 30.33 856 25.28 16.9 62.5 44 4.8 40.7
19:10 1027 30.33 856 25.28 16.8 62.2 44 4.7 40.5
19:15 1027 30.33 856 25.28 16.6 61.9 45 4.8 40.6
19:20 1027 30.33 856 25.28 16.5 61.6 45 4.5 40.1
19:25 1027 30.33 856 25.28 16.5 61.8 46 4.9 40.8
19:30 1027 30.33 856 25.28 16.6 62 45 4.8 40.7
19:35 1027 30.33 856 25.28 16.6 61.9 45 4.8 40.6
19:40 1027 30.33 856 25.28 16.6 61.8 45 4.6 40.3
19:45 1027 30.33 856 25.28 16.4 61.5 45 4.6 40.2
19:50 1027 30.33 856 25.28 16.5 61.6 45 4.7 40.5
19:55 1027 30.33 856 25.28 16.5 61.7 46 4.8 40.7
20:00 1027 30.33 856 25.28 16.5 61.6 46 5 40.9
20:05 1027 30.33 856 25.28 16.4 61.6 46 4.8 40.6
20:10 1027 30.33 856 25.28 16.4 61.6 46 4.8 40.6
20:15 1027 30.33 856 25.28 16.4 61.6 47 5.1 41.1
20:20 1027 30.33 856 25.28 16.3 61.4 46 4.9 40.8
20:25 1027 30.33 856 25.28 16.3 61.3 47 5.1 41.1
20:30 1027 30.33 856 25.28 16.2 61.2 46 4.7 40.5
20:35 1027 30.33 856 25.28 16.2 61.1 47 4.9 40.8
20:40 1027 30.33 856 25.28 16.1 60.9 48 5 41
20:45 1027 30.33 856 25.28 16 60.7 49 5.3 41.6
20:50 1027 30.33 856 25.28 15.4 59.8 55 6.5 43.7
20:55 1027 30.33 856 25.28 14.6 58.2 58 6.4 43.6
21:00 1027 30.33 856 25.28 14.1 57.3 59 6.4 43.4
21:05 1027 30.33 856 25.28 13.7 56.6 61 6.3 43.4
21:10 1027 30.33 856 25.28 13.4 56.1 62 6.4 43.5
21:15 1027 30.33 856 25.28 13.2 55.8 62 6.2 43.2
21:20 1027 30.33 856 25.28 13.1 55.5 63 6.4 43.4
21:25 1027 30.33 856 25.28 12.8 55 64 6.1 43.1
21:30 1027 30.33 856 25.28 12.6 54.8 65 6.2 43.1
21:35 1027 30.33 856 25.28 12.4 54.3 66 6.2 43.1
21:40 1027 30.33 856 25.28 12.1 53.8 67 6.3 43.3
21:45 1027 30.33 856 25.28 11.9 53.3 67 5.9 42.6
21:50 1027 30.33 856 25.28 11.8 53.2 67 5.9 42.6
21:55 1027 30.33 856 25.28 11.6 52.9 67 5.8 42.4
22:00 1027 30.33 856 25.28 11.4 52.6 68 5.8 42.4
22:05 1027 30.33 856 25.28 11.3 52.3 69 5.7 42.3
22:10 1027 30.33 856 25.28 11.1 51.9 70 5.8 42.4
22:15 1027 30.33 856 25.28 11 51.7 69 5.6 42.1
22:20 1027 30.33 856 25.28 10.9 51.7 70 5.7 42.2
22:25 1027 30.33 856 25.28 10.8 51.5 70 5.6 42
22:30 1027 30.33 856 25.28 10.8 51.4 70 5.6 42.1
22:35 1027 30.33 856 25.28 10.5 50.9 72 5.6 42.1
22:40 1027 30.33 856 25.28 10.5 50.9 71 5.4 41.7
22:45 1027 30.33 856 25.28 10.7 51.3 69 5.4 41.7
22:50 1027 30.33 856 25.28 10.8 51.4 70 5.5 42
22:55 1027 30.33 856 25.28 10.7 51.2 70 5.5 41.9
23:00 1027 30.33 856 25.28 10.6 51 71 5.5 41.9
23:05 1027 30.33 856 25.28 10.5 50.9 70 5.4 41.7
23:10 1027 30.33 856 25.28 10.4 50.8 71 5.4 41.8
23:15 1027 30.33 856 25.28 10.2 50.3 72 5.4 41.7
23:20 1027 30.33 856 25.28 9.9 49.8 73 5.3 41.5
23:25 1027 30.33 856 25.28 9.8 49.6 73 5.1 41.2
23:30 1027 30.33 856 25.28 9.7 49.5 73 5.1 41.2
23:35 1027 30.33 856 25.28 9.7 49.5 73 5.1 41.1
23:40 1027 30.33 856 25.28 9.7 49.5 72 5 41
23:45 1027 30.33 856 25.28 9.8 49.6 72 5 41.1
23:50 1027 30.33 856 25.28 9.8 49.6 72 5 41
23:55 1027 30.33 856 25.28 9.7 49.4 72 5 41
24:00 1027 30.33 856 25.28 9.6 49.3 72 4.9 40.8